UNNT/OVB METAR and TAF weather

Enter ICAO airport designator
Station Type Date Time Source
UNNT METAR 2022/12/10 02:30 UTC NOAA

UNNT 100230Z 20004MPS CAVOK M19/M22 Q1030 R25/150050 R34/////// NOSIG RMK QFE762/1016


Station Type Date Time Source
UNNT Decoded METAR 2022/12/10 02:30 UTC NOAA

Station name not available
Dec 09, 2022 - 09:30 PM EST / 2022.12.10 0230 UTC
Wind: from the SSW (200 degrees) at 9 MPH (8 KT):0
Visibility: greater than 7 mile(s):0
Temperature: -2 F (-19 C)
Windchill: -18 F (-28 C):2
Dew Point: -7 F (-22 C)
Relative Humidity: 77%
Pressure (altimeter): 30.42 in. Hg (1030 hPa)
ob: UNNT 100230Z 20004MPS CAVOK M19/M22 Q1030 R25/150050 R34/////// NOSIG RMK QFE762/1016
cycle: 2

Station Type Date Time Source
UNNT TAF 2022/12/10 03:21 UTC NOAA

TAF UNNT 100200Z 1003/1103 21008G16MPS 8000 -SHSN BKN016CB
TEMPO 1003/1015 3000 -SHSN DRSN BKN005 BKN011CB
BECMG 1012/1015 26003G08MPS
TEMPO 1015/1103 BKN010CB

Example: see airport list